Time;durP1;ratioP1;P1;durP2;ratioP2;P2;SDS_P1;SDS_P2;PMS_P1;PMS_P2;Temp;Humidity;BMP_temperature;BMP_pressure;BME280_temperature;BME280_humidity;BME280_pressure;Samples;Min_cycle;Max_cycle;Signal;HPM_P1;HPM_P2
2022/11/05 00:11:16;;;;;;;3.92;1.85;;;20.90;44.20;;;;;;5051926;28;22243;-53
2022/11/05 00:16:45;;;;;;;2.97;1.50;;;20.90;44.20;;;;;;5052640;28;20416;-50
2022/11/05 00:19:12;;;;;;;2.53;1.40;;;20.90;44.20;;;;;;5048565;28;20044;-50
2022/11/05 00:27:08;;;;;;;2.40;1.10;;;20.80;44.20;;;;;;5052409;28;20028;-50
2022/11/05 00:29:35;;;;;;;1.88;1.10;;;20.90;44.20;;;;;;5051177;28;20056;-48
2022/11/05 00:32:01;;;;;;;2.72;1.38;;;20.80;44.20;;;;;;5031075;28;20359;-48
2022/11/05 00:34:27;;;;;;;2.33;1.25;;;20.90;44.20;;;;;;5050937;28;20108;-48
2022/11/05 00:36:52;;;;;;;2.97;1.50;;;20.90;44.30;;;;;;5052335;28;20436;-49
2022/11/05 00:39:18;;;;;;;2.60;1.10;;;20.90;44.30;;;;;;5049703;28;20032;-50
2022/11/05 00:44:58;;;;;;;1.70;0.80;;;20.80;44.20;;;;;;5051861;28;20071;-49
2022/11/05 00:49:59;;;;;;;1.48;0.82;;;20.80;44.10;;;;;;5051409;28;20033;-51
2022/11/05 00:55:10;;;;;;;1.77;1.00;;;20.80;44.10;;;;;;5051177;28;20032;-51
2022/11/05 00:57:38;;;;;;;1.67;0.90;;;20.80;44.20;;;;;;5047480;28;20436;-52
2022/11/05 01:00:04;;;;;;;3.65;1.23;;;20.90;44.20;;;;;;5048375;28;20033;-52
2022/11/05 01:02:30;;;;;;;3.00;1.10;;;20.80;44.20;;;;;;5050155;28;20111;-48
2022/11/05 01:04:56;;;;;;;2.45;1.42;;;20.80;44.20;;;;;;5050572;28;20395;-53
2022/11/05 01:07:21;;;;;;;2.55;1.20;;;20.80;44.20;;;;;;5049466;28;20025;-52
2022/11/05 01:09:47;;;;;;;1.80;1.20;;;20.80;44.30;;;;;;5050965;28;20387;-50
2022/11/05 01:12:13;;;;;;;2.17;1.27;;;20.80;44.30;;;;;;5051539;28;20070;-49
2022/11/05 01:14:39;;;;;;;1.88;1.15;;;20.80;44.40;;;;;;5050523;28;20036;-47
2022/11/05 01:17:05;;;;;;;3.03;1.38;;;20.80;44.40;;;;;;5050889;28;20029;-50
2022/11/05 01:19:31;;;;;;;2.28;1.35;;;20.80;44.40;;;;;;5049403;28;20025;-51
2022/11/05 01:21:57;;;;;;;2.15;1.23;;;20.80;44.40;;;;;;5050985;28;20033;-48
2022/11/05 01:24:23;;;;;;;2.28;1.02;;;20.80;44.50;;;;;;5049353;28;20033;-52
2022/11/05 01:26:48;;;;;;;1.58;1.00;;;20.80;44.50;;;;;;5050336;28;20035;-50
2022/11/05 01:29:14;;;;;;;2.20;1.13;;;20.80;44.50;;;;;;5050987;28;20041;-53
2022/11/05 01:31:40;;;;;;;2.50;1.48;;;20.80;44.50;;;;;;5048962;28;20029;-51
2022/11/05 01:34:06;;;;;;;2.15;0.90;;;20.80;44.40;;;;;;5050030;28;20383;-49
2022/11/05 01:36:32;;;;;;;2.13;1.27;;;20.80;44.50;;;;;;5051244;28;20029;-51
2022/11/05 01:38:57;;;;;;;2.42;1.30;;;20.80;44.50;;;;;;5050634;28;20102;-51
2022/11/05 01:41:23;;;;;;;2.30;1.17;;;20.80;44.50;;;;;;5049498;28;20029;-51
2022/11/05 01:43:58;;;;;;;2.13;1.15;;;20.80;44.40;;;;;;5029891;28;20056;-51
2022/11/05 01:46:35;;;;;;;1.98;1.17;;;20.80;44.40;;;;;;5050423;28;20047;-49
2022/11/05 01:49:26;;;;;;;1.83;1.20;;;20.80;44.40;;;;;;5046900;28;20017;-50
2022/11/05 01:51:54;;;;;;;1.98;1.20;;;20.70;44.40;;;;;;5049647;28;20037;-48
2022/11/05 01:54:25;;;;;;;1.80;1.00;;;20.80;44.50;;;;;;5049023;28;20028;-50
2022/11/05 01:56:58;;;;;;;2.00;1.10;;;20.70;44.40;;;;;;5051037;28;20035;-51
2022/11/05 01:59:54;;;;;;;3.42;1.30;;;20.70;44.40;;;;;;5046841;28;20032;-49
2022/11/05 02:02:20;;;;;;;1.90;1.10;;;20.70;44.40;;;;;;5028799;28;20044;-48
2022/11/05 02:05:07;;;;;;;1.58;1.00;;;20.70;44.40;;;;;;5048952;28;20020;-52
2022/11/05 02:07:33;;;;;;;1.98;1.27;;;20.70;44.40;;;;;;5047765;28;20051;-51
2022/11/05 02:10:12;;;;;;;2.53;1.38;;;20.70;44.40;;;;;;5045894;28;20052;-53
2022/11/05 02:12:42;;;;;;;3.35;1.00;;;20.70;44.40;;;;;;5047976;28;20025;-51
2022/11/05 02:15:21;;;;;;;1.65;1.17;;;20.70;44.40;;;;;;5050038;28;20040;-51
2022/11/05 02:18:05;;;;;;;1.63;1.10;;;20.70;44.40;;;;;;5044235;28;20075;-51
2022/11/05 02:20:43;;;;;;;2.05;1.00;;;20.70;44.40;;;;;;5048645;28;20025;-52
2022/11/05 02:23:36;;;;;;;2.55;1.10;;;20.70;44.40;;;;;;5048738;28;20031;-47
2022/11/05 02:26:29;;;;;;;1.67;1.05;;;20.70;44.40;;;;;;5048686;28;20031;-53
2022/11/05 02:28:58;;;;;;;1.88;0.93;;;20.70;44.30;;;;;;5045309;28;20352;-50
2022/11/05 02:31:33;;;;;;;2.20;1.25;;;20.70;44.40;;;;;;5049359;28;20052;-50
2022/11/05 02:34:37;;;;;;;2.33;1.10;;;20.60;44.30;;;;;;5047848;28;20029;-51
2022/11/05 02:37:21;;;;;;;3.10;1.30;;;20.60;44.30;;;;;;5047290;28;20052;-50
2022/11/05 02:39:55;;;;;;;2.43;1.00;;;20.60;44.30;;;;;;5048144;28;20582;-53
2022/11/05 02:42:44;;;;;;;2.03;1.17;;;20.60;44.30;;;;;;5048785;28;20025;-50
2022/11/05 02:45:21;;;;;;;3.03;1.20;;;20.60;44.30;;;;;;5049122;28;20108;-53
2022/11/05 02:48:06;;;;;;;3.35;1.63;;;20.60;44.30;;;;;;5028847;28;20352;-52
2022/11/05 02:51:03;;;;;;;1.60;1.00;;;20.60;44.30;;;;;;5049490;28;20025;-52
2022/11/05 02:53:52;;;;;;;1.55;0.98;;;20.60;44.30;;;;;;5048536;28;20032;-49
2022/11/05 02:56:29;;;;;;;1.90;1.00;;;20.60;44.30;;;;;;5031957;28;20454;-49
2022/11/05 02:58:55;;;;;;;2.00;1.30;;;20.60;44.30;;;;;;5044801;28;20017;-51
2022/11/05 03:01:20;;;;;;;2.22;1.30;;;20.60;44.30;;;;;;5048099;28;20325;-52
2022/11/05 03:03:50;;;;;;;2.38;1.33;;;20.60;44.30;;;;;;5049855;28;20025;-50
2022/11/05 03:06:47;;;;;;;1.65;1.05;;;20.60;44.30;;;;;;5048890;28;20029;-49
2022/11/05 03:09:39;;;;;;;2.65;1.60;;;20.60;44.30;;;;;;5046450;28;20133;-50
2022/11/05 03:12:11;;;;;;;2.33;1.20;;;20.60;44.30;;;;;;5046574;28;20029;-48
2022/11/05 03:15:06;;;;;;;2.10;1.20;;;20.60;44.20;;;;;;5048644;28;20041;-51
2022/11/05 03:17:56;;;;;;;2.05;1.00;;;20.60;44.20;;;;;;5046761;28;20033;-52
2022/11/05 03:20:42;;;;;;;1.42;0.90;;;20.60;44.30;;;;;;5045135;28;20040;-50
2022/11/05 03:23:38;;;;;;;1.50;0.90;;;20.60;44.20;;;;;;5049125;28;20451;-51
2022/11/05 03:26:27;;;;;;;1.67;1.20;;;20.60;44.20;;;;;;5013339;28;20359;-47
2022/11/05 03:29:05;;;;;;;1.90;1.08;;;20.50;44.10;;;;;;5050980;28;20115;-51
2022/11/05 03:31:33;;;;;;;2.33;1.20;;;20.50;44.10;;;;;;5053078;28;20044;-50
2022/11/05 03:34:01;;;;;;;1.50;0.90;;;20.50;44.10;;;;;;5052997;28;20037;-50
2022/11/05 03:36:38;;;;;;;2.53;1.13;;;20.50;44.10;;;;;;5052699;28;20051;-49
2022/11/05 03:39:09;;;;;;;2.22;1.00;;;20.50;44.10;;;;;;5050871;28;20490;-50
2022/11/05 03:41:39;;;;;;;2.15;0.80;;;20.50;44.00;;;;;;5050540;28;20025;-48
2022/11/05 03:44:08;;;;;;;1.45;0.82;;;20.50;44.00;;;;;;5031323;28;20044;-48
2022/11/05 03:46:40;;;;;;;1.50;0.90;;;20.50;44.00;;;;;;5049186;28;20064;-49
2022/11/05 03:49:13;;;;;;;1.20;0.90;;;20.50;44.00;;;;;;5051230;28;20078;-49
2022/11/05 03:51:48;;;;;;;1.42;0.80;;;20.50;44.70;;;;;;5051733;28;20029;-53
2022/11/05 03:54:14;;;;;;;1.73;0.90;;;20.50;44.00;;;;;;5051326;28;20037;-50
2022/11/05 03:57:02;;;;;;;1.23;0.93;;;20.50;44.00;;;;;;5050433;28;20036;-50
2022/11/05 03:59:31;;;;;;;0.85;0.65;;;20.50;44.00;;;;;;5052140;28;20029;-47
2022/11/05 04:01:57;;;;;;;1.13;0.75;;;20.50;43.90;;;;;;5050643;28;20319;-51
2022/11/05 04:04:23;;;;;;;1.42;0.70;;;20.50;43.90;;;;;;5051662;28;20029;-53
2022/11/05 04:15:03;;;;;;;1.70;1.00;;;20.50;43.90;;;;;;5052903;28;20406;-54
2022/11/05 04:17:29;;;;;;;2.03;1.00;;;20.50;44.00;;;;;;5050632;28;20032;-49
2022/11/05 04:25:23;;;;;;;1.48;0.75;;;20.40;44.00;;;;;;5053355;28;20079;-50
2022/11/05 04:27:50;;;;;;;1.98;0.80;;;20.40;43.90;;;;;;5052198;28;20029;-47
2022/11/05 04:30:18;;;;;;;1.83;0.80;;;20.40;43.90;;;;;;5049982;28;20037;-49
2022/11/05 04:33:09;;;;;;;1.85;1.02;;;20.40;43.80;;;;;;5050075;28;20053;-51
2022/11/05 04:35:41;;;;;;;1.13;0.80;;;20.40;43.80;;;;;;5051357;28;20029;-50
2022/11/05 04:38:13;;;;;;;2.45;1.00;;;20.40;43.80;;;;;;5048745;28;20122;-51
2022/11/05 04:40:39;;;;;;;2.35;0.73;;;20.40;43.70;;;;;;5049762;28;20032;-50
2022/11/05 04:43:06;;;;;;;2.10;0.90;;;20.40;43.70;;;;;;5049893;28;20070;-50
2022/11/05 04:45:34;;;;;;;1.15;0.52;;;20.40;43.70;;;;;;5022716;28;20043;-50
2022/11/05 04:48:01;;;;;;;1.00;0.80;;;20.40;43.70;;;;;;5051041;28;20029;-48
2022/11/05 04:50:27;;;;;;;1.60;0.93;;;20.40;43.60;;;;;;5052393;28;20343;-51
2022/11/05 04:52:53;;;;;;;1.60;0.70;;;20.40;43.60;;;;;;5050546;28;20025;-48
2022/11/05 04:55:19;;;;;;;1.85;1.13;;;20.40;43.60;;;;;;5052728;28;20028;-50
2022/11/05 04:57:49;;;;;;;1.17;0.80;;;20.40;43.60;;;;;;5051298;28;20021;-51
2022/11/05 05:00:16;;;;;;;2.22;0.80;;;20.40;43.60;;;;;;5049768;28;20025;-52
2022/11/05 05:02:42;;;;;;;2.45;1.00;;;20.40;43.50;;;;;;5049211;28;20032;-49
2022/11/05 05:05:08;;;;;;;1.55;0.80;;;20.40;43.60;;;;;;5051634;28;20029;-48
2022/11/05 05:07:33;;;;;;;3.17;0.70;;;20.40;43.60;;;;;;5050892;28;20044;-54
2022/11/05 05:10:01;;;;;;;1.73;0.80;;;20.40;43.60;;;;;;5050335;28;20194;-50
2022/11/05 05:12:27;;;;;;;1.60;0.80;;;20.40;43.60;;;;;;5050072;28;20033;-53
2022/11/05 05:14:52;;;;;;;1.27;0.80;;;20.40;43.50;;;;;;5051858;28;20494;-51
2022/11/05 05:17:18;;;;;;;1.45;0.70;;;20.40;43.50;;;;;;5050145;28;20083;-49
2022/11/05 05:22:29;;;;;;;1.85;0.85;;;20.40;43.40;;;;;;5049887;28;20092;-52
2022/11/05 05:24:55;;;;;;;1.25;0.65;;;20.40;43.40;;;;;;5052361;28;20025;-49
2022/11/05 05:27:25;;;;;;;2.13;0.90;;;20.30;43.30;;;;;;5019851;28;20044;-50
2022/11/05 05:29:50;;;;;;;2.00;0.88;;;20.40;43.40;;;;;;5049627;28;20124;-48
2022/11/05 05:32:16;;;;;;;1.77;0.90;;;20.30;43.30;;;;;;5019147;28;20104;-50
2022/11/05 05:34:42;;;;;;;2.22;0.90;;;20.40;43.30;;;;;;5048874;28;20029;-49
2022/11/05 05:37:08;;;;;;;1.30;0.80;;;20.30;43.30;;;;;;5050886;28;20032;-50
2022/11/05 05:39:34;;;;;;;1.83;0.70;;;20.30;43.30;;;;;;5050831;28;20455;-52
2022/11/05 05:41:59;;;;;;;2.47;1.00;;;20.30;43.20;;;;;;5049096;28;20063;-53
2022/11/05 05:44:25;;;;;;;1.08;0.75;;;20.30;43.20;;;;;;5050485;28;20048;-52
2022/11/05 05:46:53;;;;;;;1.83;1.08;;;20.30;43.20;;;;;;5051070;28;20029;-48
2022/11/05 05:49:19;;;;;;;1.52;0.80;;;20.30;43.20;;;;;;5047239;28;20412;-54
2022/11/05 05:51:47;;;;;;;2.03;0.88;;;20.30;43.20;;;;;;5047053;28;20029;-53
2022/11/05 05:54:13;;;;;;;1.70;0.90;;;20.30;43.10;;;;;;5045239;28;20049;-51
2022/11/05 05:56:41;;;;;;;2.15;0.85;;;20.30;43.10;;;;;;5051275;28;20056;-48
2022/11/05 05:59:07;;;;;;;2.38;1.08;;;20.30;43.10;;;;;;5049885;28;20032;-51
2022/11/05 06:01:33;;;;;;;3.30;1.00;;;20.30;43.10;;;;;;5044656;28;20818;-54
2022/11/05 06:03:58;;;;;;;1.65;0.95;;;20.30;43.10;;;;;;5049970;28;20071;-52
2022/11/05 06:06:24;;;;;;;2.20;0.90;;;20.30;43.10;;;;;;5050757;28;20055;-54
2022/11/05 06:08:50;;;;;;;2.05;0.98;;;20.30;43.10;;;;;;5048149;28;20393;-53
2022/11/05 06:11:16;;;;;;;1.98;1.05;;;20.30;43.00;;;;;;5050235;28;20036;-55
2022/11/05 06:13:42;;;;;;;1.83;0.93;;;20.30;43.00;;;;;;5050195;28;20068;-54
2022/11/05 06:16:09;;;;;;;1.27;0.88;;;20.30;43.00;;;;;;5050313;28;20405;-54
2022/11/05 06:18:36;;;;;;;1.70;1.10;;;20.30;43.00;;;;;;5048146;28;20103;-50
2022/11/05 06:21:07;;;;;;;1.77;0.90;;;20.30;43.00;;;;;;5047493;28;20025;-51
2022/11/05 06:23:35;;;;;;;1.77;1.00;;;20.30;43.00;;;;;;5049113;28;20033;-50
2022/11/05 06:26:04;;;;;;;2.40;1.05;;;20.30;43.00;;;;;;5047701;28;20033;-50
2022/11/05 06:28:32;;;;;;;2.00;0.98;;;20.20;42.90;;;;;;5047752;28;20445;-48
2022/11/05 06:30:58;;;;;;;1.55;0.70;;;20.30;43.00;;;;;;5030057;28;20663;-50
2022/11/05 06:33:25;;;;;;;2.28;0.90;;;20.30;43.00;;;;;;5049287;28;20032;-48
2022/11/05 06:35:51;;;;;;;1.83;0.90;;;20.30;43.10;;;;;;5047793;28;20044;-54
2022/11/05 06:38:17;;;;;;;2.67;0.90;;;20.20;43.10;;;;;;5050200;28;20037;-49
2022/11/05 06:40:43;;;;;;;1.65;0.90;;;20.20;43.10;;;;;;5049871;28;20106;-54
2022/11/05 06:43:09;;;;;;;1.95;0.88;;;20.20;43.00;;;;;;5049313;28;20097;-51
2022/11/05 06:45:35;;;;;;;3.53;1.20;;;20.20;42.90;;;;;;5048211;28;20035;-50
2022/11/05 06:48:01;;;;;;;2.53;0.82;;;20.20;42.90;;;;;;5049328;28;20021;-51
2022/11/05 06:50:27;;;;;;;1.13;0.75;;;20.20;42.90;;;;;;5045453;28;20060;-50
2022/11/05 06:52:58;;;;;;;2.38;1.02;;;20.30;43.00;;;;;;5038175;28;20033;-51
2022/11/05 06:55:26;;;;;;;2.08;1.10;;;20.20;43.00;;;;;;5034326;28;20037;-49
2022/11/05 06:57:55;;;;;;;1.05;0.82;;;20.20;42.90;;;;;;5039133;28;20039;-50
2022/11/05 07:00:22;;;;;;;2.40;0.98;;;20.20;42.90;;;;;;5051632;28;20104;-47
2022/11/05 07:02:49;;;;;;;2.78;1.20;;;20.20;42.90;;;;;;5052544;28;20333;-52
2022/11/05 07:05:16;;;;;;;1.33;0.95;;;20.30;43.00;;;;;;5036051;28;20025;-48
2022/11/05 07:07:43;;;;;;;1.92;0.95;;;20.20;42.90;;;;;;5045202;28;20471;-51
2022/11/05 07:10:13;;;;;;;2.78;1.10;;;20.20;42.90;;;;;;5040245;28;20057;-50
2022/11/05 07:12:45;;;;;;;1.83;1.00;;;20.20;42.90;;;;;;5044625;28;20532;-52
2022/11/05 07:15:12;;;;;;;1.55;0.77;;;20.20;42.90;;;;;;5041608;28;20035;-55
2022/11/05 07:17:39;;;;;;;2.28;1.00;;;20.20;42.90;;;;;;5045781;28;21327;-55
2022/11/05 07:20:07;;;;;;;1.05;0.88;;;20.20;42.90;;;;;;5051837;28;20453;-52
2022/11/05 07:22:33;;;;;;;3.13;1.15;;;20.20;42.90;;;;;;5054106;28;20032;-51
2022/11/05 07:24:59;;;;;;;2.72;0.98;;;20.20;42.90;;;;;;5043326;28;20029;-50
2022/11/05 07:27:25;;;;;;;1.98;1.00;;;20.20;42.90;;;;;;5047486;28;20044;-49
2022/11/05 07:29:51;;;;;;;2.22;1.08;;;20.20;42.90;;;;;;5049197;28;20539;-49
2022/11/05 07:32:17;;;;;;;3.30;1.33;;;20.20;42.90;;;;;;5044493;28;20112;-49
2022/11/05 07:34:43;;;;;;;1.77;1.10;;;20.20;43.00;;;;;;5050529;28;20028;-52
2022/11/05 07:37:09;;;;;;;1.65;0.85;;;20.20;43.00;;;;;;5047563;28;20039;-54
2022/11/05 07:39:34;;;;;;;1.88;0.85;;;20.30;43.10;;;;;;5044401;28;20044;-51
2022/11/05 07:42:00;;;;;;;1.98;1.00;;;20.30;43.20;;;;;;5047967;28;20025;-49
2022/11/05 07:44:32;;;;;;;2.47;1.10;;;20.20;43.10;;;;;;5020807;28;20033;-56
2022/11/05 07:47:09;;;;;;;2.30;0.95;;;20.20;43.10;;;;;;5034421;28;20041;-56
2022/11/05 07:49:36;;;;;;;2.60;1.30;;;20.30;43.30;;;;;;5036602;28;20047;-56
2022/11/05 07:52:01;;;;;;;1.95;1.10;;;20.30;43.50;;;;;;5016951;28;20116;-52
2022/11/05 07:54:27;;;;;;;2.92;1.20;;;20.30;43.60;;;;;;5033971;28;20021;-54
2022/11/05 07:56:53;;;;;;;2.20;1.23;;;20.30;43.70;;;;;;5034243;28;20496;-53
2022/11/05 07:59:19;;;;;;;2.63;1.00;;;20.30;43.80;;;;;;5046563;28;20024;-52
2022/11/05 08:01:45;;;;;;;2.85;1.50;;;20.30;43.70;;;;;;5047208;28;20053;-51
2022/11/05 08:04:11;;;;;;;2.88;1.00;;;20.30;43.60;;;;;;5042276;28;20109;-57
2022/11/05 08:06:42;;;;;;;2.35;1.20;;;20.30;43.70;;;;;;5044468;28;20025;-49
2022/11/05 08:09:08;;;;;;;2.08;1.20;;;20.30;43.80;;;;;;5045485;28;20033;-54
2022/11/05 08:11:34;;;;;;;5.88;1.63;;;20.30;43.70;;;;;;5048711;28;20052;-55
2022/11/05 08:14:00;;;;;;;2.60;1.27;;;20.30;43.60;;;;;;5048282;28;20021;-55
2022/11/05 08:16:26;;;;;;;1.85;1.25;;;20.30;43.50;;;;;;5034088;28;20387;-55
2022/11/05 08:18:52;;;;;;;3.25;1.27;;;20.30;43.40;;;;;;5046645;28;20463;-54
2022/11/05 08:21:18;;;;;;;3.20;1.65;;;20.30;43.40;;;;;;5031170;28;20025;-54
2022/11/05 08:23:44;;;;;;;3.35;1.42;;;20.30;43.30;;;;;;5053702;28;20032;-54
2022/11/05 08:26:10;;;;;;;2.78;1.40;;;20.30;43.30;;;;;;5050020;28;20379;-48
2022/11/05 08:28:36;;;;;;;3.20;1.23;;;20.40;43.30;;;;;;5048961;28;20067;-47
2022/11/05 08:31:02;;;;;;;3.35;1.20;;;20.40;43.50;;;;;;5052157;28;20033;-51
2022/11/05 08:33:30;;;;;;;2.17;1.17;;;20.40;43.80;;;;;;5049892;28;20025;-55
2022/11/05 08:35:55;;;;;;;3.05;1.27;;;20.40;44.40;;;;;;5047225;28;20098;-51
2022/11/05 08:38:21;;;;;;;2.63;1.20;;;20.50;44.40;;;;;;5046395;28;20021;-52
2022/11/05 08:40:56;;;;;;;1.98;1.10;;;20.40;44.80;;;;;;5033831;28;20025;-48
2022/11/05 08:43:22;;;;;;;1.95;0.90;;;20.50;44.10;;;;;;5040239;28;20413;-56
2022/11/05 08:45:48;;;;;;;4.03;1.15;;;20.50;44.00;;;;;;5044653;28;20087;-52
2022/11/05 08:48:16;;;;;;;2.20;1.23;;;20.50;43.90;;;;;;5051197;28;20113;-55
2022/11/05 08:50:43;;;;;;;3.22;1.52;;;20.50;43.80;;;;;;5049284;28;20033;-53
2022/11/05 08:53:09;;;;;;;1.85;1.30;;;20.50;43.70;;;;;;5031943;28;20021;-52
2022/11/05 08:55:35;;;;;;;4.40;1.30;;;20.50;43.60;;;;;;5047250;28;20029;-53
2022/11/05 08:58:04;;;;;;;3.58;1.20;;;20.50;43.50;;;;;;5047699;28;20033;-53
2022/11/05 09:00:33;;;;;;;2.65;1.40;;;20.50;43.60;;;;;;5048773;28;20037;-54
2022/11/05 09:03:03;;;;;;;1.88;1.10;;;20.50;43.50;;;;;;5049973;28;20146;-52
2022/11/05 09:05:31;;;;;;;3.08;1.50;;;20.50;43.40;;;;;;5023784;28;20044;-53
2022/11/05 09:07:57;;;;;;;2.50;1.42;;;20.50;43.40;;;;;;5044519;28;20029;-50
2022/11/05 09:10:23;;;;;;;2.30;1.23;;;20.50;43.30;;;;;;5047839;28;20095;-53
2022/11/05 09:12:49;;;;;;;3.25;1.15;;;20.50;43.30;;;;;;5052031;28;20444;-53
2022/11/05 09:15:15;;;;;;;2.38;1.30;;;20.50;43.30;;;;;;5049563;28;20029;-51
2022/11/05 09:17:41;;;;;;;2.50;1.30;;;20.50;43.30;;;;;;5028252;28;20037;-54
2022/11/05 09:20:07;;;;;;;1.88;1.25;;;20.60;43.30;;;;;;5027682;28;20463;-50
2022/11/05 09:22:33;;;;;;;3.08;1.05;;;20.50;43.90;;;;;;5050942;28;20364;-50
2022/11/05 09:24:59;;;;;;;3.10;1.10;;;20.50;43.50;;;;;;5056653;28;20033;-50
2022/11/05 09:27:25;;;;;;;3.75;1.05;;;20.50;43.60;;;;;;5039273;28;20033;-48
2022/11/05 09:29:51;;;;;;;4.20;1.27;;;20.60;43.60;;;;;;5050365;28;20037;-53
2022/11/05 09:32:18;;;;;;;3.25;1.20;;;20.50;43.50;;;;;;5041894;28;20369;-51
2022/11/05 09:34:44;;;;;;;1.73;1.05;;;20.50;43.40;;;;;;5036422;28;20408;-49
2022/11/05 09:37:10;;;;;;;2.88;1.25;;;20.50;43.40;;;;;;5054012;28;20090;-52
2022/11/05 09:39:36;;;;;;;2.45;1.45;;;20.50;43.40;;;;;;5056028;28;20029;-50
2022/11/05 09:42:06;;;;;;;2.00;1.27;;;20.50;43.40;;;;;;5046956;28;20024;-51
2022/11/05 09:44:47;;;;;;;2.13;1.05;;;20.50;43.40;;;;;;5056121;28;20025;-52
2022/11/05 09:47:52;;;;;;;2.33;1.27;;;20.60;43.60;;;;;;5050842;28;20024;-48
2022/11/05 09:50:30;;;;;;;5.03;1.30;;;20.60;43.60;;;;;;4990428;28;20123;-49
2022/11/05 09:52:56;;;;;;;3.28;1.60;;;20.60;44.10;;;;;;5040098;28;20043;-51
2022/11/05 09:55:34;;;;;;;2.45;1.20;;;20.50;44.10;;;;;;5035545;28;20072;-50
2022/11/05 09:58:10;;;;;;;2.90;1.20;;;20.50;44.10;;;;;;5036249;28;20425;-51
2022/11/05 10:00:36;;;;;;;2.25;0.98;;;20.60;44.40;;;;;;5035541;28;20033;-52
2022/11/05 10:03:06;;;;;;;2.83;1.13;;;20.50;44.70;;;;;;5047193;28;20090;-53
2022/11/05 10:05:33;;;;;;;1.88;1.10;;;20.50;44.80;;;;;;5045112;28;20071;-50
2022/11/05 10:08:06;;;;;;;2.40;1.05;;;20.60;45.10;;;;;;5053018;28;20460;-53
2022/11/05 10:10:47;;;;;;;1.58;1.00;;;20.60;45.30;;;;;;5055565;28;20528;-53
2022/11/05 10:13:35;;;;;;;2.17;1.00;;;20.60;45.40;;;;;;5052740;28;20059;-55
2022/11/05 10:16:39;;;;;;;2.20;1.10;;;20.50;45.40;;;;;;5046617;28;20036;-55
2022/11/05 10:19:23;;;;;;;6.10;1.27;;;20.50;45.40;;;;;;5038729;28;20502;-55
2022/11/05 10:21:49;;;;;;;2.80;1.10;;;20.50;45.30;;;;;;5054396;28;20384;-51
2022/11/05 10:24:19;;;;;;;2.13;1.00;;;20.60;45.30;;;;;;5055045;28;20457;-53
2022/11/05 10:26:49;;;;;;;2.25;1.08;;;20.60;45.20;;;;;;5055798;28;20036;-51
2022/11/05 10:29:35;;;;;;;3.40;1.17;;;20.60;45.10;;;;;;5052857;28;20051;-52
2022/11/05 10:32:07;;;;;;;2.60;1.15;;;20.60;45.10;;;;;;5035943;28;20041;-54
2022/11/05 10:34:36;;;;;;;2.30;0.93;;;20.60;45.10;;;;;;5041679;28;20394;-52
2022/11/05 10:37:02;;;;;;;3.05;1.17;;;20.60;45.00;;;;;;5054636;28;20044;-53
2022/11/05 10:39:30;;;;;;;2.22;1.10;;;20.60;45.10;;;;;;5047853;28;20029;-53
2022/11/05 10:42:20;;;;;;;3.65;1.30;;;20.60;45.00;;;;;;5053776;28;20048;-54
2022/11/05 10:45:15;;;;;;;2.58;1.05;;;20.60;45.00;;;;;;5040413;28;20025;-51
2022/11/05 10:47:52;;;;;;;4.57;1.15;;;20.60;45.10;;;;;;5054905;28;20102;-48
2022/11/05 10:50:29;;;;;;;2.08;1.20;;;20.60;45.00;;;;;;5049919;28;20024;-52
2022/11/05 10:53:17;;;;;;;2.65;1.33;;;20.60;45.00;;;;;;5021337;28;20063;-51
2022/11/05 10:55:50;;;;;;;2.65;1.30;;;20.60;45.00;;;;;;5034989;28;20033;-52
2022/11/05 10:58:16;;;;;;;1.98;0.95;;;20.50;44.80;;;;;;5034883;28;20037;-53
2022/11/05 11:00:44;;;;;;;2.10;1.10;;;20.50;44.80;;;;;;5052672;28;20025;-52
2022/11/05 11:03:34;;;;;;;3.88;1.50;;;20.50;44.80;;;;;;5054405;28;20029;-52
2022/11/05 11:06:13;;;;;;;1.63;1.20;;;20.50;44.80;;;;;;5038453;28;20136;-54
2022/11/05 11:08:43;;;;;;;1.92;1.15;;;20.50;44.80;;;;;;5030011;28;20048;-53
2022/11/05 11:11:11;;;;;;;2.38;1.27;;;20.50;45.10;;;;;;5034615;28;20053;-51
2022/11/05 11:13:58;;;;;;;2.13;1.00;;;20.50;45.50;;;;;;5035669;28;20452;-55
2022/11/05 11:16:44;;;;;;;2.88;1.33;;;20.60;45.90;;;;;;5042789;28;20442;-52
2022/11/05 11:19:29;;;;;;;4.75;1.20;;;20.60;46.10;;;;;;5036226;28;20038;-48
2022/11/05 11:22:17;;;;;;;2.05;1.05;;;20.60;46.50;;;;;;5049284;28;20033;-60
2022/11/05 11:24:49;;;;;;;2.63;1.13;;;20.70;46.50;;;;;;5048544;28;20029;-56
2022/11/05 11:27:21;;;;;;;2.80;1.35;;;20.70;46.30;;;;;;5053946;28;20029;-56
2022/11/05 11:30:12;;;;;;;3.25;1.30;;;20.70;46.10;;;;;;5037472;28;20151;-56
2022/11/05 11:32:38;;;;;;;2.35;1.33;;;20.80;46.00;;;;;;5046022;28;20026;-59
2022/11/05 11:35:07;;;;;;;3.17;1.13;;;20.80;45.70;;;;;;5044997;28;20325;-59
2022/11/05 11:37:40;;;;;;;1.67;1.00;;;20.90;45.50;;;;;;5039148;28;20025;-58
2022/11/05 11:40:21;;;;;;;1.93;1.10;;;21.00;45.30;;;;;;5040139;28;20030;-53
2022/11/05 11:42:54;;;;;;;2.03;1.10;;;21.20;45.20;;;;;;5036621;28;20032;-55
2022/11/05 11:45:25;;;;;;;2.03;1.10;;;21.30;44.90;;;;;;5037719;28;20414;-57
2022/11/05 11:47:51;;;;;;;2.92;1.35;;;21.30;44.70;;;;;;5047815;28;20484;-58
2022/11/05 11:50:37;;;;;;;2.55;1.20;;;21.40;44.50;;;;;;5026891;28;20037;-60
2022/11/05 11:53:26;;;;;;;2.67;1.30;;;21.50;44.20;;;;;;5048644;28;20025;-55
2022/11/05 11:56:00;;;;;;;1.40;0.77;;;21.60;44.00;;;;;;5025420;28;20441;-59
2022/11/05 11:58:40;;;;;;;1.83;0.90;;;21.70;43.80;;;;;;5045382;28;20396;-56
2022/11/05 12:01:31;;;;;;;5.20;1.20;;;21.80;43.60;;;;;;5032384;28;20275;-59
2022/11/05 12:04:06;;;;;;;1.63;0.90;;;21.90;43.40;;;;;;5050884;28;20098;-58
2022/11/05 12:06:32;;;;;;;;;;;22.00;43.20;;;;;;5057823;28;20032;-59
2022/11/05 12:09:07;;;;;;;1.75;1.10;;;22.10;43.10;;;;;;5017778;28;19908;-54
2022/11/05 12:12:04;;;;;;;3.55;0.90;;;22.10;42.90;;;;;;5040729;28;20045;-52
2022/11/05 12:14:56;;;;;;;2.83;1.02;;;22.20;42.60;;;;;;5056130;28;20045;-56
2022/11/05 12:17:40;;;;;;;3.03;1.20;;;22.30;42.50;;;;;;5010460;28;20041;-56
2022/11/05 12:20:24;;;;;;;2.42;1.10;;;22.30;42.30;;;;;;5029905;28;20044;-56
2022/11/05 12:23:11;;;;;;;1.88;1.08;;;22.40;42.20;;;;;;5040122;28;20051;-58
2022/11/05 12:25:49;;;;;;;2.17;1.10;;;22.40;42.10;;;;;;5043814;28;20060;-59
2022/11/05 12:28:37;;;;;;;3.03;1.27;;;22.40;42.00;;;;;;5037683;28;20040;-57
2022/11/05 12:31:28;;;;;;;2.35;1.08;;;22.50;42.00;;;;;;5049336;28;20071;-59
2022/11/05 12:34:17;;;;;;;2.28;0.93;;;22.50;41.90;;;;;;5057186;28;20028;-51
2022/11/05 12:37:22;;;;;;;2.20;1.00;;;22.50;41.90;;;;;;5047165;28;20025;-48
2022/11/05 12:40:09;;;;;;;1.98;1.13;;;22.60;41.90;;;;;;5034150;28;20041;-56
2022/11/05 12:43:10;;;;;;;4.47;1.10;;;22.60;42.00;;;;;;5055205;28;20025;-55
2022/11/05 12:46:02;;;;;;;3.10;0.98;;;22.70;41.90;;;;;;5057146;28;20475;-59
2022/11/05 12:48:46;;;;;;;4.32;1.20;;;22.70;42.40;;;;;;5057488;28;20463;-58
2022/11/05 12:51:31;;;;;;;2.75;0.90;;;22.80;41.70;;;;;;5042434;28;20983;-57
2022/11/05 12:53:59;;;;;;;;;;;22.80;41.50;;;;;;5055985;28;20040;-57
2022/11/05 12:56:44;;;;;;;2.90;1.17;;;22.80;41.40;;;;;;5057027;28;19952;-56
2022/11/05 12:59:40;;;;;;;0.95;0.80;;;22.80;41.30;;;;;;5057074;28;20040;-60
2022/11/05 13:02:12;;;;;;;4.32;1.20;;;22.80;41.30;;;;;;5043259;28;20071;-57
2022/11/05 13:05:02;;;;;;;3.08;1.15;;;22.90;41.30;;;;;;5057151;28;20356;-57
2022/11/05 13:07:39;;;;;;;2.08;0.90;;;22.90;41.20;;;;;;5055809;28;20098;-62
2022/11/05 13:10:32;;;;;;;2.05;1.13;;;22.90;41.20;;;;;;5036609;28;20052;-60
2022/11/05 13:13:15;;;;;;;4.03;1.40;;;22.90;41.80;;;;;;5038790;28;20033;-59
2022/11/05 13:15:52;;;;;;;3.40;1.20;;;22.90;41.20;;;;;;5054777;28;20028;-56
2022/11/05 13:18:36;;;;;;;1.42;0.85;;;23.00;41.40;;;;;;5036082;28;20024;-51
2022/11/05 13:21:05;;;;;;;2.15;0.85;;;23.00;41.40;;;;;;5045621;28;20029;-48
2022/11/05 13:23:38;;;;;;;3.13;0.95;;;23.00;41.30;;;;;;5039829;28;20405;-49
2022/11/05 13:26:37;;;;;;;1.70;1.00;;;23.10;41.30;;;;;;5056535;28;20052;-51
2022/11/05 13:29:15;;;;;;;5.47;0.93;;;23.10;41.20;;;;;;5050212;28;20044;-48
2022/11/05 13:31:56;;;;;;;2.40;1.02;;;23.10;41.10;;;;;;5056371;28;20064;-48
2022/11/05 13:34:22;;;;;;;2.25;0.80;;;23.10;41.10;;;;;;5056162;28;20032;-49
2022/11/05 13:39:56;;;;;;;1.38;0.73;;;23.20;41.00;;;;;;5053535;28;20098;-50
2022/11/05 13:42:55;;;;;;;2.17;0.95;;;23.20;40.90;;;;;;5055829;28;20044;-48
2022/11/05 13:45:43;;;;;;;2.22;0.95;;;23.20;40.90;;;;;;5053921;28;20156;-48
2022/11/05 13:48:36;;;;;;;6.78;1.30;;;23.20;40.90;;;;;;5056263;28;20061;-50
2022/11/05 13:51:11;;;;;;;2.08;1.00;;;23.20;40.80;;;;;;5056105;28;20040;-52
2022/11/05 13:54:01;;;;;;;2.08;1.27;;;23.20;40.70;;;;;;5048189;28;20032;-54
2022/11/05 13:56:26;;;;;;;5.45;1.20;;;23.20;40.70;;;;;;5032135;28;20106;-49
2022/11/05 13:59:04;;;;;;;4.50;0.98;;;23.20;40.70;;;;;;5053998;28;20025;-48
2022/11/05 14:02:14;;;;;;;8.15;1.35;;;23.20;40.60;;;;;;5051975;28;20108;-49
2022/11/05 14:04:45;;;;;;;2.75;1.10;;;23.20;40.50;;;;;;4974969;28;20035;-48